N82TWC -KCHA
Flight info
| Callsign | N82TWC |
|---|---|
| Flight time | N/A |
| Altitude | VFR |
| Route | |
| Aircraft | C152/L-DOV/C |
Departure
| Time | N/A |
|---|---|
| Airport | - |
Arrival
| Time | 2026-04-21 19:59 |
|---|---|
| Airport | Chattanooga Metropolitan Airport (Lovell Field) (KCHA) |
| Time | Latitude | Longitude | Altitude | Speed | Heading |
|---|---|---|---|---|---|
| 2026-04-21 19:46 | 35.03850 | -84.67830 | 5048 ft | 143 kts | 266° |
| 2026-04-21 19:47 | 35.03833 | -84.69045 | 5190 ft | 144 kts | 266° |
| 2026-04-21 19:47 | 35.03830 | -84.70051 | 5172 ft | 152 kts | 267° |
| 2026-04-21 19:47 | 35.03840 | -84.70764 | 5172 ft | 153 kts | 270° |
| 2026-04-21 19:48 | 35.03923 | -84.72059 | 5282 ft | 149 kts | 271° |
| 2026-04-21 19:48 | 35.03988 | -84.73372 | 5161 ft | 159 kts | 272° |
| 2026-04-21 19:48 | 35.04118 | -84.74732 | 5093 ft | 161 kts | 275° |
| 2026-04-21 19:48 | 35.04319 | -84.76078 | 5062 ft | 162 kts | 282° |
| 2026-04-21 19:49 | 35.04513 | -84.77018 | 4972 ft | 164 kts | 281° |
| 2026-04-21 19:49 | 35.04661 | -84.77742 | 4930 ft | 164 kts | 282° |
| 2026-04-21 19:49 | 35.04941 | -84.79081 | 4918 ft | 163 kts | 283° |
| 2026-04-21 19:49 | 35.05262 | -84.80397 | 4958 ft | 162 kts | 284° |
| 2026-04-21 19:50 | 35.05587 | -84.81718 | 5052 ft | 166 kts | 285° |
| 2026-04-21 19:50 | 35.05903 | -84.83075 | 5004 ft | 167 kts | 283° |
| 2026-04-21 19:50 | 35.06217 | -84.84454 | 4925 ft | 169 kts | 283° |
| 2026-04-21 19:50 | 35.06483 | -84.85867 | 4840 ft | 173 kts | 279° |
| 2026-04-21 19:51 | 35.06723 | -84.87261 | 4898 ft | 164 kts | 280° |
| 2026-04-21 19:51 | 35.06913 | -84.88645 | 4857 ft | 169 kts | 272° |
| 2026-04-21 19:51 | 35.07030 | -84.90027 | 4983 ft | 162 kts | 274° |
| 2026-04-21 19:51 | 35.07159 | -84.91418 | 4956 ft | 167 kts | 274° |
| 2026-04-21 19:52 | 35.07353 | -84.92829 | 4931 ft | 169 kts | 277° |
| 2026-04-21 19:52 | 35.07490 | -84.94239 | 5112 ft | 162 kts | 270° |
| 2026-04-21 19:52 | 35.07577 | -84.95584 | 5230 ft | 158 kts | 271° |
| 2026-04-21 19:52 | 35.07716 | -84.96930 | 5274 ft | 165 kts | 277° |
| 2026-04-21 19:53 | 35.08004 | -84.98307 | 5220 ft | 171 kts | 284° |
| 2026-04-21 19:53 | 35.08341 | -84.99699 | 5153 ft | 171 kts | 283° |
| 2026-04-21 19:53 | 35.08687 | -85.01084 | 5039 ft | 173 kts | 285° |
| 2026-04-21 19:53 | 35.09009 | -85.02521 | 4981 ft | 177 kts | 281° |
| 2026-04-21 19:54 | 35.09308 | -85.03945 | 4933 ft | 171 kts | 280° |
| 2026-04-21 19:54 | 35.09568 | -85.05353 | 4907 ft | 165 kts | 278° |
| 2026-04-21 19:54 | 35.09767 | -85.06722 | 4964 ft | 165 kts | 277° |
| 2026-04-21 19:54 | 35.09911 | -85.08120 | 4919 ft | 167 kts | 272° |
| 2026-04-21 19:55 | 35.10034 | -85.09526 | 4896 ft | 159 kts | 274° |
| 2026-04-21 19:55 | 35.10206 | -85.10761 | 4841 ft | 141 kts | 276° |
| 2026-04-21 19:55 | 35.10385 | -85.11873 | 4688 ft | 130 kts | 276° |
| 2026-04-21 19:55 | 35.10584 | -85.12945 | 4474 ft | 127 kts | 277° |
| 2026-04-21 19:56 | 35.10783 | -85.14011 | 4247 ft | 130 kts | 277° |
| 2026-04-21 19:56 | 35.10977 | -85.15024 | 4245 ft | 116 kts | 279° |
| 2026-04-21 19:56 | 35.11137 | -85.16031 | 3950 ft | 123 kts | 268° |
| 2026-04-21 19:56 | 35.10851 | -85.17008 | 3420 ft | 128 kts | 226° |
| 2026-04-21 19:57 | 35.10161 | -85.17661 | 3038 ft | 120 kts | 216° |
| 2026-04-21 19:57 | 35.09414 | -85.18062 | 2669 ft | 119 kts | 206° |
| 2026-04-21 19:57 | 35.08612 | -85.18375 | 2321 ft | 113 kts | 202° |
| 2026-04-21 19:57 | 35.07876 | -85.18670 | 1984 ft | 108 kts | 200° |
| 2026-04-21 19:58 | 35.07200 | -85.18921 | 1811 ft | 94 kts | 197° |
| 2026-04-21 19:58 | 35.06603 | -85.19152 | 1530 ft | 85 kts | 197° |
| 2026-04-21 19:58 | 35.06024 | -85.19371 | 1297 ft | 85 kts | 198° |
| 2026-04-21 19:58 | 35.05453 | -85.19583 | 1089 ft | 89 kts | 193° |
| 2026-04-21 19:59 | 35.04906 | -85.19796 | 878 ft | 77 kts | 198° |
| 2026-04-21 19:59 | 35.04452 | -85.19959 | 733 ft | 63 kts | 197° |
| 2026-04-21 19:59 | 35.04058 | -85.20103 | 676 ft | 49 kts | 195° |
| 2026-04-21 19:59 | 35.03803 | -85.20188 | 673 ft | 31 kts | 197° |
| 2026-04-21 20:00 | 35.03592 | -85.20268 | 672 ft | 35 kts | 196° |
| 2026-04-21 20:00 | 35.03381 | -85.20348 | 673 ft | 24 kts | 201° |
| 2026-04-21 20:00 | 35.03354 | -85.20449 | 676 ft | 2 kts | 287° |
| 2026-04-21 20:00 | 35.03309 | -85.20514 | 676 ft | 18 kts | 219° |
| 2026-04-21 20:01 | 35.03267 | -85.20595 | 677 ft | 11 kts | 196° |
| 2026-04-21 20:01 | 35.03241 | -85.20607 | 677 ft | 0 kts | 199° |